Terminal Aerodrome Forecast
Issued by NWS Brownsville, TX

Home | Current Version | Previous Version | Text Only | Print | Product List | Glossary On
Versions: 1 2 3 4 5 6 7 8 9 10 11 12 13 14 15 16 17 18 19 20 21 22 23
000
FTUS44 KBRO 301741
TAFBRO
TAF
KBRO 301741Z 3018/3118 13011KT P6SM VCTS FEW029CB BKN045 OVC080
      TEMPO 3018/3022 VRB20G30KT 5SM -TSRA BKN029CB
     FM302200 12010KT P6SM BKN045 BKN120
     FM310300 14008KT P6SM SCT030 BKN250
     FM311100 14015KT P6SM BKN025
     FM311500 14015KT P6SM BKN035=

USA.gov is the U.S. government's official web portal to all federal, state and local government web resources and services.